Aérodrome :
LOGIN :

S'inscrire | Disclaimer

   EN    FR    IT 

 










Légende :    VFR   VFR Marginal   IFR   IFR Intensif   IFR Très Intensif
Visi : 
Plafond : 
>= 8 km
>= 3000ft
5 à 8 km
1000 à 3000 ft
1500m à 5 km
500 à 1000 ft
800 à 1500m
200 à 500 ft
< 800m
< 200 ft
Symboles :   Orages  Brouillard  Fortes neiges  Fortes précipitations  Vent > 20 kt
SIGMETs :   Divers  Orages  Givrage  Turbulence  Onde Orograph.  Cendres Volcan.







- Altitude de l'aérodrome : 309 ft
- Code IATA : FNI
- Voir les cartes d'approche


LFTW - Nîmes Garons

DERNIER METAR :
  • 160230Z AUTO 05004KT 010V080 CAVOK 21/17 Q1012 TEMPO BKN010

METARs EXPIRÉS :
  • 160200Z AUTO 09005KT CAVOK 22/19 Q1012
  • 160130Z AUTO 05003KT 8000 BKN007 BKN015 BKN150 22/21 Q1013
  • 160100Z AUTO VRB03KT 9000 OVC007/// ///TCU 22/21 Q1014
  • 160030Z AUTO 00000KT 9999 BKN007 22/21 Q1014
  • 160000Z AUTO 00000KT CAVOK 22/21 Q1014

TAF TAF LFTW
Valide du 16 à 03h jusqu'au 17 à 03h UTC


160200Z 1603/1703 36010KT CAVOK
PROB30
TEMPO 1603/1606 BKN010
TEMPO 1608/1617 SHRA FEW050TCU BKN060
PROB30
TEMPO 1609/1611 TSRA SCT040CB BKN050
TEMPO 1613/1703 33015G30KT
Pas de NOTAMs connus pour ce terrain.



MET'MAP, la Météo Aéronautique d'un coup d'oeil ! - Copyright ORBIFLY Décembre 2007 - Disclaimer

ORBIFLY MET'MAP TEAM :

Programmation & Développement : Alexandra Zaïnal
Conception & Développement : Baudouin d'Aumeries
Co-Programmation & Développement : Marc-Olivier Méhu
Soutien technique & logistique : Manuel Goepfert

Contact : metmap@orbifly.com




SOURCES & CREDITS :

   NOAA